Time;durP1;ratioP1;P1;durP2;ratioP2;P2;SDS_P1;SDS_P2;PMS_P1;PMS_P2;Temp;Humidity;BMP_temperature;BMP_pressure;BME280_temperature;BME280_humidity;BME280_pressure;Samples;Min_cycle;Max_cycle;Signal;HPM_P1;HPM_P2
2022/02/11 00:08:53;;;;;;;13.43;8.95;;;;;;;;;;5046951;28;20029;-81
2022/02/11 00:11:19;;;;;;;13.70;9.05;;;;;;;;;;5029518;28;20036;-81
2022/02/11 00:13:46;;;;;;;16.13;9.80;;;;;;;;;;5031041;28;20045;-81
2022/02/11 00:16:12;;;;;;;14.80;8.75;;;;;;;;;;5058327;28;20475;-80
2022/02/11 00:18:38;;;;;;;14.15;8.90;;;;;;;;;;5029399;28;20056;-81
2022/02/11 00:21:04;;;;;;;12.63;8.00;;;;;;;;;;5028928;28;20401;-81
2022/02/11 00:23:32;;;;;;;12.30;8.45;;;;;;;;;;5046685;28;20045;-80
2022/02/11 00:26:01;;;;;;;11.98;8.90;;;;;;;;;;5029007;28;20028;-81
2022/02/11 00:33:56;;;;;;;11.45;8.15;;;;;;;;;;5047792;28;20048;-81
2022/02/11 00:36:32;;;;;;;14.13;8.98;;;;;;;;;;5048735;28;20049;-80
2022/02/11 00:53:42;;;;;;;12.90;8.50;;;;;;;;;;5034924;28;20093;-80
2022/02/11 01:04:15;;;;;;;13.10;8.18;;;;;;;;;;5061200;28;20055;-81
2022/02/11 01:06:42;;;;;;;12.27;8.23;;;;;;;;;;5047632;28;20030;-80
2022/02/11 01:09:12;;;;;;;16.02;9.38;;;;;;;;;;5028636;28;20393;-80
2022/02/11 01:11:45;;;;;;;14.10;8.55;;;;;;;;;;5045883;28;20022;-80
2022/02/11 01:14:12;;;;;;;13.68;8.57;;;;;;;;;;5059301;28;20021;-81
2022/02/11 01:16:43;;;;;;;11.68;8.60;;;;;;;;;;5032065;28;20021;-80
2022/02/11 01:19:26;;;;;;;12.55;8.80;;;;;;;;;;5045054;28;20052;-80
2022/02/11 01:37:31;;;;;;;14.48;8.20;;;;;;;;;;5045502;28;20030;-80
2022/02/11 01:56:14;;;;;;;13.10;8.23;;;;;;;;;;5011345;28;20541;-80
2022/02/11 01:59:44;;;;;;;10.68;8.57;;;;;;;;;;5007181;28;20026;-80
2022/02/11 02:20:17;;;;;;;12.43;8.77;;;;;;;;;;5025944;28;20026;-80
2022/02/11 02:25:13;;;;;;;11.30;8.25;;;;;;;;;;5026942;28;20026;-80
2022/02/11 02:38:48;;;;;;;12.45;8.40;;;;;;;;;;5024457;28;20034;-80
2022/02/11 02:57:53;;;;;;;11.93;8.45;;;;;;;;;;5045941;28;20112;-80
2022/02/11 03:57:40;;;;;;;17.60;12.10;;;;;;;;;;5041449;28;20408;-80
2022/02/11 04:22:45;;;;;;;15.73;11.63;;;;;;;;;;5045642;28;20068;-80
2022/02/11 04:52:40;;;;;;;19.27;12.25;;;;;;;;;;5047984;28;20060;-81
2022/02/11 04:55:34;;;;;;;20.73;12.48;;;;;;;;;;5064484;28;20048;-80
2022/02/11 05:00:44;;;;;;;17.55;12.93;;;;;;;;;;5058650;28;20563;-80
2022/02/11 05:03:10;;;;;;;20.80;12.85;;;;;;;;;;5044478;28;20033;-80
2022/02/11 05:05:49;;;;;;;24.33;14.52;;;;;;;;;;5057851;28;20199;-80
2022/02/11 05:08:19;;;;;;;20.40;13.30;;;;;;;;;;5047501;28;20029;-81
2022/02/11 05:10:46;;;;;;;23.63;14.98;;;;;;;;;;5045958;28;20021;-80
2022/02/11 05:13:13;;;;;;;19.77;14.43;;;;;;;;;;5030438;28;20096;-81
2022/02/11 05:15:39;;;;;;;21.50;14.43;;;;;;;;;;5065596;28;20043;-81
2022/02/11 05:18:05;;;;;;;23.67;15.43;;;;;;;;;;5047706;28;20102;-80
2022/02/11 05:20:34;;;;;;;21.17;15.07;;;;;;;;;;5027664;28;20025;-80
2022/02/11 05:23:05;;;;;;;21.60;14.57;;;;;;;;;;5019659;28;20051;-81
2022/02/11 05:25:32;;;;;;;23.80;15.02;;;;;;;;;;5045806;28;20127;-80
2022/02/11 05:27:59;;;;;;;20.70;13.95;;;;;;;;;;5028913;28;20022;-81
2022/02/11 05:30:25;;;;;;;21.85;13.60;;;;;;;;;;5030347;28;20033;-80
2022/02/11 05:32:51;;;;;;;20.13;14.13;;;;;;;;;;5048256;28;20503;-80
2022/02/11 05:35:17;;;;;;;19.33;14.10;;;;;;;;;;5052860;28;20033;-80
2022/02/11 05:37:43;;;;;;;18.50;13.88;;;;;;;;;;5056827;28;20041;-81
2022/02/11 05:40:10;;;;;;;19.88;14.40;;;;;;;;;;5029601;28;20028;-81
2022/02/11 05:42:36;;;;;;;24.00;15.02;;;;;;;;;;5027988;28;20024;-80
2022/02/11 05:45:02;;;;;;;21.77;15.45;;;;;;;;;;5063420;28;20052;-81
2022/02/11 05:47:28;;;;;;;21.77;15.65;;;;;;;;;;5057770;28;20026;-80
2022/02/11 05:49:54;;;;;;;21.35;15.02;;;;;;;;;;5040915;28;20043;-80
2022/02/11 05:52:20;;;;;;;23.95;14.65;;;;;;;;;;5028186;28;20072;-80
2022/02/11 05:54:46;;;;;;;19.83;15.05;;;;;;;;;;5026216;28;20025;-80
2022/02/11 05:57:12;;;;;;;21.63;13.98;;;;;;;;;;5043981;28;20107;-80
2022/02/11 05:59:38;;;;;;;19.25;14.75;;;;;;;;;;5026106;28;20033;-80
2022/02/11 06:02:04;;;;;;;22.55;15.43;;;;;;;;;;5043133;28;20032;-80
2022/02/11 06:04:30;;;;;;;23.88;14.45;;;;;;;;;;5024576;28;20029;-80
2022/02/11 06:06:58;;;;;;;18.65;13.63;;;;;;;;;;5038664;28;20393;-80
2022/02/11 06:09:24;;;;;;;19.13;13.80;;;;;;;;;;5043645;28;20036;-81
2022/02/11 06:11:51;;;;;;;23.23;15.63;;;;;;;;;;5016647;28;20341;-80
2022/02/11 06:14:18;;;;;;;20.13;15.15;;;;;;;;;;5017101;28;20033;-80
2022/02/11 06:16:44;;;;;;;22.35;14.90;;;;;;;;;;5024591;28;20026;-80
2022/02/11 06:19:10;;;;;;;21.05;14.40;;;;;;;;;;5044128;28;20037;-81
2022/02/11 06:21:36;;;;;;;18.98;14.10;;;;;;;;;;5056687;28;20120;-81
2022/02/11 06:24:02;;;;;;;20.55;14.52;;;;;;;;;;5024462;28;20026;-81
2022/02/11 06:26:28;;;;;;;24.13;15.82;;;;;;;;;;5038753;28;20026;-81
2022/02/11 06:29:04;;;;;;;21.92;15.30;;;;;;;;;;5043362;28;20393;-81
2022/02/11 06:31:30;;;;;;;26.20;18.10;;;;;;;;;;5039176;28;20022;-80
2022/02/11 06:33:56;;;;;;;26.45;17.88;;;;;;;;;;5021838;28;20077;-80
2022/02/11 06:36:22;;;;;;;23.63;15.88;;;;;;;;;;5044167;28;20488;-80
2022/02/11 06:38:48;;;;;;;29.50;17.17;;;;;;;;;;5014302;28;20029;-80
2022/02/11 06:41:14;;;;;;;25.88;16.95;;;;;;;;;;5042538;28;20036;-81
2022/02/11 06:43:40;;;;;;;23.98;16.25;;;;;;;;;;5024439;28;20045;-81
2022/02/11 06:46:06;;;;;;;25.23;16.35;;;;;;;;;;5040786;28;20030;-81
2022/02/11 06:48:33;;;;;;;28.08;17.40;;;;;;;;;;5043485;28;20072;-80
2022/02/11 06:51:02;;;;;;;26.60;17.00;;;;;;;;;;5044401;28;20084;-80
2022/02/11 06:53:28;;;;;;;28.60;18.15;;;;;;;;;;5022251;28;20544;-80
2022/02/11 06:55:54;;;;;;;28.88;17.20;;;;;;;;;;5035411;28;20041;-80
2022/02/11 06:58:22;;;;;;;22.65;16.00;;;;;;;;;;5044342;28;20030;-80
2022/02/11 07:00:50;;;;;;;28.30;18.27;;;;;;;;;;5028882;28;20037;-80
2022/02/11 07:03:16;;;;;;;30.23;19.30;;;;;;;;;;5013249;28;20033;-80
2022/02/11 07:05:42;;;;;;;24.48;18.67;;;;;;;;;;5023875;28;20030;-80
2022/02/11 07:08:09;;;;;;;27.13;17.88;;;;;;;;;;5028459;28;20472;-80
2022/02/11 07:10:35;;;;;;;25.95;17.63;;;;;;;;;;5045564;28;20108;-80
2022/02/11 07:13:02;;;;;;;23.30;16.38;;;;;;;;;;5041611;28;20041;-80
2022/02/11 07:15:34;;;;;;;23.85;15.93;;;;;;;;;;5050276;28;20039;-80
2022/02/11 07:18:00;;;;;;;20.52;15.15;;;;;;;;;;5064628;28;20083;-80
2022/02/11 07:20:26;;;;;;;21.00;15.30;;;;;;;;;;5065841;28;20029;-80
2022/02/11 07:22:54;;;;;;;29.98;17.83;;;;;;;;;;5035676;28;20095;-80
2022/02/11 07:25:20;;;;;;;20.95;15.30;;;;;;;;;;5040182;28;20041;-81
2022/02/11 07:27:46;;;;;;;29.20;16.98;;;;;;;;;;5045529;28;20021;-80
2022/02/11 07:30:13;;;;;;;22.65;16.08;;;;;;;;;;5047050;28;20021;-80
2022/02/11 07:32:39;;;;;;;23.38;15.82;;;;;;;;;;5047347;28;20075;-80
2022/02/11 07:35:05;;;;;;;24.40;15.32;;;;;;;;;;5054148;28;20033;-80
2022/02/11 07:37:31;;;;;;;21.20;16.05;;;;;;;;;;5038168;28;20042;-78
2022/02/11 07:39:58;;;;;;;22.20;15.82;;;;;;;;;;5037706;28;20113;-79
2022/02/11 07:42:25;;;;;;;21.83;16.13;;;;;;;;;;5035664;28;20032;-80
2022/02/11 07:44:51;;;;;;;21.65;15.30;;;;;;;;;;5035489;28;20042;-80
2022/02/11 07:47:17;;;;;;;22.30;14.88;;;;;;;;;;5040076;28;20510;-80
2022/02/11 07:49:44;;;;;;;23.50;15.00;;;;;;;;;;5022938;28;20032;-81
2022/02/11 07:52:10;;;;;;;23.50;15.40;;;;;;;;;;5040856;28;20108;-80
2022/02/11 07:54:36;;;;;;;25.27;15.27;;;;;;;;;;5038873;28;20021;-80
2022/02/11 07:57:02;;;;;;;21.77;14.82;;;;;;;;;;5004706;28;20029;-80
2022/02/11 07:59:28;;;;;;;24.20;17.25;;;;;;;;;;5022444;28;20032;-80
2022/02/11 08:01:55;;;;;;;22.67;15.90;;;;;;;;;;5039962;28;20026;-81
2022/02/11 08:04:21;;;;;;;21.00;14.68;;;;;;;;;;5040633;28;20504;-80
2022/02/11 08:06:47;;;;;;;21.10;14.45;;;;;;;;;;5003291;28;20022;-79
2022/02/11 08:09:14;;;;;;;19.65;13.93;;;;;;;;;;5037633;28;20025;-81
2022/02/11 08:11:40;;;;;;;22.63;14.77;;;;;;;;;;5022457;28;20035;-79
2022/02/11 08:14:09;;;;;;;21.65;15.40;;;;;;;;;;5039722;28;20029;-79
2022/02/11 08:16:35;;;;;;;21.17;15.30;;;;;;;;;;5055847;28;20035;-79
2022/02/11 08:19:01;;;;;;;24.00;15.82;;;;;;;;;;5041383;28;20091;-78
2022/02/11 08:21:27;;;;;;;24.90;15.50;;;;;;;;;;5052417;28;20028;-80
2022/02/11 08:23:53;;;;;;;20.23;14.30;;;;;;;;;;5020912;28;20052;-79
2022/02/11 08:26:19;;;;;;;23.50;16.17;;;;;;;;;;5039247;28;20040;-80
2022/02/11 08:28:45;;;;;;;25.90;16.65;;;;;;;;;;5020410;28;20393;-78
2022/02/11 08:31:12;;;;;;;29.58;17.23;;;;;;;;;;5021540;28;20022;-79
2022/02/11 08:33:38;;;;;;;19.33;14.75;;;;;;;;;;5041011;28;20473;-80
2022/02/11 08:36:05;;;;;;;19.50;14.55;;;;;;;;;;5050685;28;20028;-80
2022/02/11 08:38:32;;;;;;;23.58;14.32;;;;;;;;;;5062327;28;20382;-78
2022/02/11 08:40:59;;;;;;;22.23;14.73;;;;;;;;;;5042836;28;20029;-79
2022/02/11 08:43:26;;;;;;;21.25;15.15;;;;;;;;;;5026287;28;20033;-78
2022/02/11 08:45:52;;;;;;;23.60;16.45;;;;;;;;;;5045879;28;20036;-78
2022/02/11 08:48:18;;;;;;;23.75;14.95;;;;;;;;;;5045718;28;20099;-78
2022/02/11 08:50:44;;;;;;;21.63;15.23;;;;;;;;;;5059940;28;20036;-78
2022/02/11 08:53:11;;;;;;;22.98;15.52;;;;;;;;;;5039278;28;20041;-80
2022/02/11 08:55:37;;;;;;;23.02;16.30;;;;;;;;;;5022470;28;20026;-80
2022/02/11 08:58:07;;;;;;;27.55;18.15;;;;;;;;;;5020640;28;20029;-80
2022/02/11 09:00:33;;;;;;;25.42;17.90;;;;;;;;;;5021033;28;20045;-79
2022/02/11 09:02:59;;;;;;;31.52;18.15;;;;;;;;;;5032247;28;20029;-79
2022/02/11 09:05:27;;;;;;;22.92;16.05;;;;;;;;;;5042091;28;20035;-80
2022/02/11 09:07:57;;;;;;;23.80;16.65;;;;;;;;;;5042092;28;20017;-81
2022/02/11 09:10:23;;;;;;;26.30;18.92;;;;;;;;;;5059872;28;20501;-82
2022/02/11 09:12:50;;;;;;;31.33;20.25;;;;;;;;;;5023479;28;20030;-81
2022/02/11 09:15:32;;;;;;;34.80;21.45;;;;;;;;;;5021722;28;20029;-80
2022/02/11 09:18:12;;;;;;;29.47;20.43;;;;;;;;;;5022780;28;20018;-79
2022/02/11 09:20:38;;;;;;;34.05;21.67;;;;;;;;;;5037420;28;20028;-80
2022/02/11 09:23:04;;;;;;;30.40;20.55;;;;;;;;;;5038182;28;20068;-81
2022/02/11 09:25:32;;;;;;;30.30;19.10;;;;;;;;;;5022085;28;20025;-82
2022/02/11 09:27:58;;;;;;;25.52;17.40;;;;;;;;;;5022650;28;20025;-81
2022/02/11 09:30:25;;;;;;;23.60;16.17;;;;;;;;;;5021990;28;20052;-81
2022/02/11 09:32:52;;;;;;;24.80;15.73;;;;;;;;;;5009114;28;20036;-80
2022/02/11 09:35:19;;;;;;;21.48;15.00;;;;;;;;;;5051968;28;20107;-80
2022/02/11 09:37:45;;;;;;;20.30;15.10;;;;;;;;;;5040831;28;20568;-80
2022/02/11 09:40:12;;;;;;;20.73;13.82;;;;;;;;;;5041181;28;20132;-82
2022/02/11 09:42:39;;;;;;;20.65;13.93;;;;;;;;;;5042875;28;20538;-80
2022/02/11 09:45:06;;;;;;;16.15;10.90;;;;;;;;;;5020511;28;20075;-80
2022/02/11 09:47:33;;;;;;;14.32;8.88;;;;;;;;;;5019999;28;20025;-80
2022/02/11 09:49:59;;;;;;;12.95;7.72;;;;;;;;;;5038917;28;20396;-80
2022/02/11 09:52:27;;;;;;;12.88;7.97;;;;;;;;;;5020454;28;20037;-80
2022/02/11 09:55:31;;;;;;;11.68;7.75;;;;;;;;;;5040395;28;20047;-79
2022/02/11 09:57:45;;;;;;;13.30;7.90;;;;;;;;;;5040757;28;20033;-81
2022/02/11 10:00:12;;;;;;;11.13;5.88;;;;;;;;;;5058016;28;20423;-79
2022/02/11 10:02:48;;;;;;;8.82;5.57;;;;;;;;;;5025513;28;20079;-79
2022/02/11 10:05:25;;;;;;;9.85;5.63;;;;;;;;;;5039736;28;20036;-80
2022/02/11 10:07:51;;;;;;;10.70;6.00;;;;;;;;;;5039790;28;20027;-81
2022/02/11 10:10:38;;;;;;;11.45;6.05;;;;;;;;;;5050480;28;20021;-80
2022/02/11 10:13:07;;;;;;;12.18;7.82;;;;;;;;;;5034412;28;20072;-81
2022/02/11 10:15:36;;;;;;;7.13;4.65;;;;;;;;;;5038186;28;20029;-80
2022/02/11 10:18:02;;;;;;;13.02;6.07;;;;;;;;;;5037962;28;20470;-80
2022/02/11 10:20:32;;;;;;;8.65;5.57;;;;;;;;;;5019957;28;20060;-79
2022/02/11 10:23:27;;;;;;;8.98;5.40;;;;;;;;;;5040239;28;20025;-82
2022/02/11 10:25:53;;;;;;;9.50;5.38;;;;;;;;;;5029255;28;20480;-80
2022/02/11 10:28:30;;;;;;;8.43;4.75;;;;;;;;;;5056566;28;20017;-79
2022/02/11 10:31:15;;;;;;;9.13;4.75;;;;;;;;;;5057198;28;20025;-80
2022/02/11 10:33:48;;;;;;;8.82;5.18;;;;;;;;;;5053401;28;20032;-80
2022/02/11 10:36:17;;;;;;;7.93;4.68;;;;;;;;;;5037366;28;20033;-78
2022/02/11 10:38:43;;;;;;;8.25;4.93;;;;;;;;;;5043746;28;20044;-79
2022/02/11 10:41:09;;;;;;;10.63;5.03;;;;;;;;;;5045178;28;20649;-83
2022/02/11 10:43:35;;;;;;;8.45;4.88;;;;;;;;;;5054706;28;20042;-81
2022/02/11 10:46:01;;;;;;;6.63;3.88;;;;;;;;;;5041031;28;20064;-81
2022/02/11 10:48:28;;;;;;;7.72;4.53;;;;;;;;;;5040205;28;20037;-80
2022/02/11 10:50:57;;;;;;;7.97;4.50;;;;;;;;;;5043747;28;20030;-80
2022/02/11 10:53:24;;;;;;;7.32;4.38;;;;;;;;;;5042559;28;20030;-79
2022/02/11 10:55:51;;;;;;;6.30;3.88;;;;;;;;;;5038867;28;20030;-81
2022/02/11 10:58:17;;;;;;;8.55;4.25;;;;;;;;;;5024079;28;20044;-80
2022/02/11 11:00:44;;;;;;;7.65;4.00;;;;;;;;;;5005696;28;20026;-81
2022/02/11 11:03:11;;;;;;;6.60;3.78;;;;;;;;;;5007877;28;20030;-79
2022/02/11 11:05:39;;;;;;;5.80;3.60;;;;;;;;;;5007984;28;20041;-79
2022/02/11 11:08:06;;;;;;;5.90;3.42;;;;;;;;;;5005487;28;20486;-83
2022/02/11 11:10:33;;;;;;;6.00;3.17;;;;;;;;;;5023516;28;20041;-82
2022/02/11 11:13:00;;;;;;;6.10;3.20;;;;;;;;;;5023570;28;20109;-81
2022/02/11 11:15:27;;;;;;;5.47;2.97;;;;;;;;;;5004142;28;20026;-79
2022/02/11 11:17:55;;;;;;;6.10;3.60;;;;;;;;;;5021487;28;20033;-78
2022/02/11 11:20:22;;;;;;;7.47;4.32;;;;;;;;;;5005312;28;20069;-79
2022/02/11 11:22:52;;;;;;;5.85;3.97;;;;;;;;;;5023089;28;20018;-79
2022/02/11 11:25:19;;;;;;;6.80;3.53;;;;;;;;;;5003763;28;20022;-79
2022/02/11 11:27:56;;;;;;;6.15;3.60;;;;;;;;;;5003076;28;20094;-79
2022/02/11 11:30:26;;;;;;;6.30;3.83;;;;;;;;;;5004153;28;20030;-81
2022/02/11 11:33:05;;;;;;;5.40;2.97;;;;;;;;;;5021125;28;20054;-81
2022/02/11 11:35:35;;;;;;;5.47;3.40;;;;;;;;;;5001210;28;20031;-80
2022/02/11 11:38:15;;;;;;;9.15;5.57;;;;;;;;;;5000982;28;20125;-82
2022/02/11 11:40:54;;;;;;;7.75;4.75;;;;;;;;;;5001538;28;20085;-78
2022/02/11 11:43:31;;;;;;;5.22;3.13;;;;;;;;;;4991757;28;20053;-80
2022/02/11 11:46:04;;;;;;;5.72;2.90;;;;;;;;;;5026089;28;20511;-78
2022/02/11 11:48:40;;;;;;;4.80;3.10;;;;;;;;;;5025307;28;20089;-80
2022/02/11 11:51:06;;;;;;;4.90;2.60;;;;;;;;;;5026183;28;20100;-82
2022/02/11 11:53:32;;;;;;;5.10;2.55;;;;;;;;;;5023521;28;20025;-79
2022/02/11 11:56:01;;;;;;;4.22;2.50;;;;;;;;;;5023578;28;20108;-79
2022/02/11 11:58:47;;;;;;;5.75;2.97;;;;;;;;;;5042735;28;20032;-80
2022/02/11 12:01:19;;;;;;;5.80;3.15;;;;;;;;;;5024871;28;20097;-80
2022/02/11 12:04:04;;;;;;;5.10;2.67;;;;;;;;;;5024774;28;20156;-79
2022/02/11 12:06:32;;;;;;;5.00;2.75;;;;;;;;;;5023900;28;20026;-80
2022/02/11 12:08:58;;;;;;;4.65;2.55;;;;;;;;;;5043020;28;20018;-81
2022/02/11 12:11:24;;;;;;;4.90;2.65;;;;;;;;;;5035536;28;20022;-80
2022/02/11 12:13:50;;;;;;;5.00;2.65;;;;;;;;;;5041887;28;20485;-81
2022/02/11 12:16:17;;;;;;;6.50;3.85;;;;;;;;;;5041395;28;20042;-82
2022/02/11 12:18:46;;;;;;;6.80;3.60;;;;;;;;;;5024105;28;20022;-80
2022/02/11 12:21:13;;;;;;;5.95;3.65;;;;;;;;;;5035189;28;20557;-81
2022/02/11 12:29:10;;;;;;;5.00;2.90;;;;;;;;;;5041525;28;20028;-81
2022/02/11 12:31:38;;;;;;;5.00;2.63;;;;;;;;;;5024104;28;20025;-81
2022/02/11 12:34:13;;;;;;;4.90;2.80;;;;;;;;;;5023972;28;20025;-80
2022/02/11 12:36:39;;;;;;;4.82;2.67;;;;;;;;;;5041805;28;20028;-82
2022/02/11 12:39:05;;;;;;;4.63;2.50;;;;;;;;;;5023971;28;20049;-82
2022/02/11 12:41:44;;;;;;;4.50;2.60;;;;;;;;;;5022836;28;20031;-82
2022/02/11 12:44:10;;;;;;;4.95;2.85;;;;;;;;;;5024012;28;20053;-80
2022/02/11 12:46:36;;;;;;;5.45;2.95;;;;;;;;;;5024643;28;20021;-82
2022/02/11 12:49:04;;;;;;;4.95;2.60;;;;;;;;;;5023760;28;20025;-80
2022/02/11 12:51:31;;;;;;;5.07;2.80;;;;;;;;;;5022899;28;20014;-82
2022/02/11 12:54:06;;;;;;;4.47;2.50;;;;;;;;;;5022797;28;20022;-82
2022/02/11 12:56:33;;;;;;;6.60;3.40;;;;;;;;;;5021878;28;20025;-79
2022/02/11 12:59:06;;;;;;;5.85;3.30;;;;;;;;;;5052332;28;20044;-80
2022/02/11 13:01:32;;;;;;;6.07;3.97;;;;;;;;;;5053727;28;20027;-79
2022/02/11 13:03:59;;;;;;;5.75;3.03;;;;;;;;;;5040619;28;20025;-82
2022/02/11 13:06:25;;;;;;;4.95;2.50;;;;;;;;;;5023190;28;20028;-79
2022/02/11 13:09:02;;;;;;;4.65;2.20;;;;;;;;;;5023082;28;20029;-80
2022/02/11 13:11:28;;;;;;;3.00;1.27;;;;;;;;;;5024710;28;20370;-82
2022/02/11 13:14:07;;;;;;;2.33;0.90;;;;;;;;;;5023713;28;20029;-79
2022/02/11 13:16:34;;;;;;;4.03;1.80;;;;;;;;;;5023351;28;20022;-80
2022/02/11 13:19:11;;;;;;;6.18;2.83;;;;;;;;;;5041446;28;20033;-81
2022/02/11 13:21:38;;;;;;;4.32;2.00;;;;;;;;;;5022467;28;20051;-84
2022/02/11 13:24:05;;;;;;;2.90;1.00;;;;;;;;;;5058535;28;20036;-82
2022/02/11 13:26:32;;;;;;;3.17;1.33;;;;;;;;;;5059117;28;20025;-80
2022/02/11 13:28:58;;;;;;;3.40;1.33;;;;;;;;;;5060885;28;20240;-80
2022/02/11 13:31:24;;;;;;;2.72;1.00;;;;;;;;;;5056161;28;20025;-79
2022/02/11 13:34:11;;;;;;;2.42;0.90;;;;;;;;;;5022772;28;20044;-80
2022/02/11 13:36:40;;;;;;;1.77;0.77;;;;;;;;;;5022088;28;20499;-84
2022/02/11 13:39:06;;;;;;;1.65;0.85;;;;;;;;;;5022053;28;20022;-82
2022/02/11 13:41:38;;;;;;;3.22;1.20;;;;;;;;;;5022582;28;20024;-81
2022/02/11 13:44:06;;;;;;;2.35;1.02;;;;;;;;;;5040755;28;20052;-80
2022/02/11 13:46:36;;;;;;;2.53;1.00;;;;;;;;;;5060806;28;20017;-83
2022/02/11 13:49:06;;;;;;;2.03;0.77;;;;;;;;;;5059627;28;20081;-81
2022/02/11 13:51:33;;;;;;;2.33;1.00;;;;;;;;;;5059991;28;20092;-81
2022/02/11 13:54:10;;;;;;;2.42;0.90;;;;;;;;;;5059634;28;20033;-82
2022/02/11 13:56:38;;;;;;;3.00;0.90;;;;;;;;;;5060035;28;20032;-82
2022/02/11 13:59:06;;;;;;;2.45;0.88;;;;;;;;;;5060372;28;20017;-83
2022/02/11 14:01:33;;;;;;;2.53;0.90;;;;;;;;;;5037321;28;20025;-82
2022/02/11 14:04:04;;;;;;;2.15;0.80;;;;;;;;;;5023538;28;20028;-81
2022/02/11 14:06:36;;;;;;;1.88;0.68;;;;;;;;;;5022464;28;20416;-81
2022/02/11 14:09:07;;;;;;;2.58;1.05;;;;;;;;;;5023489;28;20025;-83
2022/02/11 14:11:40;;;;;;;1.90;0.80;;;;;;;;;;5023895;28;20025;-81
2022/02/11 14:14:11;;;;;;;2.45;0.80;;;;;;;;;;5023143;28;20047;-79
2022/02/11 14:16:37;;;;;;;2.13;0.90;;;;;;;;;;5021890;28;20091;-82
2022/02/11 14:19:03;;;;;;;1.67;0.70;;;;;;;;;;5040929;28;20025;-81
2022/02/11 14:21:29;;;;;;;3.22;0.98;;;;;;;;;;5025214;28;20022;-82
2022/02/11 14:23:56;;;;;;;2.70;1.23;;;;;;;;;;5024611;28;20025;-79
2022/02/11 14:26:22;;;;;;;3.83;1.40;;;;;;;;;;5041869;28;20025;-80
2022/02/11 14:28:48;;;;;;;5.35;2.05;;;;;;;;;;5041687;28;20081;-81
2022/02/11 14:31:14;;;;;;;2.50;1.08;;;;;;;;;;5042924;28;20036;-84
2022/02/11 14:33:40;;;;;;;5.18;2.40;;;;;;;;;;5023063;28;20026;-81
2022/02/11 14:36:06;;;;;;;4.72;1.95;;;;;;;;;;5022665;28;20030;-80
2022/02/11 14:38:32;;;;;;;2.78;1.25;;;;;;;;;;5041610;28;20081;-82
2022/02/11 14:43:43;;;;;;;3.17;1.30;;;;;;;;;;5041380;28;20457;-81
2022/02/11 14:46:09;;;;;;;5.20;2.03;;;;;;;;;;5042949;28;20078;-80
2022/02/11 14:48:35;;;;;;;3.28;1.30;;;;;;;;;;5025215;28;20593;-84
2022/02/11 14:51:02;;;;;;;5.53;2.42;;;;;;;;;;5024551;28;20125;-80
2022/02/11 14:53:28;;;;;;;3.40;1.45;;;;;;;;;;5025146;28;20123;-83
2022/02/11 14:55:55;;;;;;;2.97;1.15;;;;;;;;;;5022886;28;20037;-83
2022/02/11 14:58:24;;;;;;;3.45;1.40;;;;;;;;;;5023158;28;20112;-83
2022/02/11 15:00:50;;;;;;;3.47;1.20;;;;;;;;;;5022969;28;20025;-84
2022/02/11 15:03:16;;;;;;;3.15;1.08;;;;;;;;;;5022930;28;20018;-83
2022/02/11 15:05:43;;;;;;;2.03;0.90;;;;;;;;;;5059206;28;20031;-84
2022/02/11 15:08:09;;;;;;;3.28;1.00;;;;;;;;;;5060122;28;20036;-83
2022/02/11 15:10:36;;;;;;;3.53;1.45;;;;;;;;;;5059559;28;20029;-81
2022/02/11 15:13:08;;;;;;;2.58;1.00;;;;;;;;;;5041320;28;20029;-81
2022/02/11 15:15:38;;;;;;;2.35;0.95;;;;;;;;;;5022855;28;20048;-82
2022/02/11 15:18:08;;;;;;;1.77;0.70;;;;;;;;;;5023029;28;20037;-82
2022/02/11 15:20:38;;;;;;;2.63;0.88;;;;;;;;;;5044464;28;20022;-83
2022/02/11 15:23:04;;;;;;;1.60;0.80;;;;;;;;;;5024948;28;20029;-82
2022/02/11 15:25:30;;;;;;;3.63;1.20;;;;;;;;;;5044011;28;20052;-83
2022/02/11 15:27:57;;;;;;;3.13;0.95;;;;;;;;;;5062166;28;20329;-79
2022/02/11 15:30:26;;;;;;;2.05;0.80;;;;;;;;;;5060845;28;20056;-80
2022/02/11 15:32:52;;;;;;;2.38;0.88;;;;;;;;;;5047206;28;20029;-81
2022/02/11 15:35:18;;;;;;;2.70;1.00;;;;;;;;;;5025928;28;20060;-80
2022/02/11 15:37:44;;;;;;;2.10;0.80;;;;;;;;;;5044516;28;20026;-83
2022/02/11 15:40:11;;;;;;;2.42;1.05;;;;;;;;;;5024108;28;20045;-81
2022/02/11 15:42:37;;;;;;;2.60;1.15;;;;;;;;;;5025277;28;20053;-82
2022/02/11 15:45:03;;;;;;;3.35;1.10;;;;;;;;;;5024965;28;20565;-81
2022/02/11 15:47:29;;;;;;;3.35;1.08;;;;;;;;;;5042353;28;20025;-84
2022/02/11 15:49:56;;;;;;;3.17;1.20;;;;;;;;;;5024840;28;20047;-84
2022/02/11 15:52:23;;;;;;;2.17;0.90;;;;;;;;;;5024341;28;20026;-83
2022/02/11 15:54:49;;;;;;;3.35;1.20;;;;;;;;;;5024837;28;20075;-81
2022/02/11 15:57:15;;;;;;;2.53;1.00;;;;;;;;;;5056683;28;20028;-83
2022/02/11 15:59:42;;;;;;;2.78;1.15;;;;;;;;;;5062107;28;20051;-82
2022/02/11 16:02:08;;;;;;;3.38;1.17;;;;;;;;;;5048966;28;20048;-81
2022/02/11 16:04:34;;;;;;;3.13;1.13;;;;;;;;;;5042852;28;20042;-81
2022/02/11 16:07:01;;;;;;;4.47;1.88;;;;;;;;;;5055175;28;20496;-85
2022/02/11 16:09:28;;;;;;;4.18;1.38;;;;;;;;;;5061348;28;20025;-85
2022/02/11 16:11:57;;;;;;;3.40;1.40;;;;;;;;;;5061921;28;20020;-81
2022/02/11 16:14:24;;;;;;;3.70;1.88;;;;;;;;;;5062779;28;20025;-82
2022/02/11 16:16:51;;;;;;;3.97;1.65;;;;;;;;;;5061456;28;20025;-80
2022/02/11 16:19:18;;;;;;;3.78;1.50;;;;;;;;;;5061687;28;20071;-81
2022/02/11 16:21:44;;;;;;;4.03;1.40;;;;;;;;;;5052454;28;20024;-80
2022/02/11 16:24:10;;;;;;;3.05;1.20;;;;;;;;;;5024229;28;20071;-81
2022/02/11 16:26:38;;;;;;;4.22;1.38;;;;;;;;;;5024567;28;20436;-82
2022/02/11 16:29:05;;;;;;;3.42;1.27;;;;;;;;;;5026134;28;20036;-82
2022/02/11 16:31:31;;;;;;;3.05;1.20;;;;;;;;;;5023963;28;20022;-82
2022/02/11 16:33:57;;;;;;;3.50;1.40;;;;;;;;;;5043931;28;20053;-82
2022/02/11 16:36:26;;;;;;;4.03;1.52;;;;;;;;;;5025831;28;20056;-80
2022/02/11 16:38:52;;;;;;;3.92;1.70;;;;;;;;;;5024889;28;20026;-80
2022/02/11 16:41:20;;;;;;;3.40;1.30;;;;;;;;;;5026162;28;20048;-81
2022/02/11 16:43:46;;;;;;;3.72;1.42;;;;;;;;;;5044016;28;20048;-82
2022/02/11 16:46:12;;;;;;;3.83;1.77;;;;;;;;;;5026560;28;20032;-82
2022/02/11 16:48:39;;;;;;;2.55;1.02;;;;;;;;;;5026749;28;20081;-81
2022/02/11 16:51:05;;;;;;;4.22;1.20;;;;;;;;;;5026225;28;20056;-81
2022/02/11 16:53:31;;;;;;;2.83;1.17;;;;;;;;;;5032401;28;20021;-84
2022/02/11 16:55:58;;;;;;;3.05;1.20;;;;;;;;;;5047131;28;20032;-81
2022/02/11 16:58:25;;;;;;;4.47;1.48;;;;;;;;;;5063283;28;20397;-81
2022/02/11 17:00:52;;;;;;;3.42;1.30;;;;;;;;;;5044154;28;20049;-82
2022/02/11 17:03:18;;;;;;;3.22;1.33;;;;;;;;;;5025474;28;20113;-83
2022/02/11 17:05:46;;;;;;;3.75;1.40;;;;;;;;;;5026553;28;20052;-81
2022/02/11 17:08:14;;;;;;;4.95;2.00;;;;;;;;;;5026867;28;20053;-81
2022/02/11 17:10:40;;;;;;;5.57;1.52;;;;;;;;;;5025935;28;20059;-83
2022/02/11 17:13:07;;;;;;;4.03;1.63;;;;;;;;;;5043841;28;20025;-80
2022/02/11 17:15:33;;;;;;;4.65;1.67;;;;;;;;;;5025845;28;20036;-84
2022/02/11 17:18:00;;;;;;;4.32;1.80;;;;;;;;;;5025725;28;20052;-82
2022/02/11 17:20:28;;;;;;;3.63;1.52;;;;;;;;;;5024969;28;20031;-80
2022/02/11 17:22:55;;;;;;;3.38;1.13;;;;;;;;;;5025591;28;20026;-83
2022/02/11 17:25:21;;;;;;;3.30;1.25;;;;;;;;;;5026002;28;20032;-81
2022/02/11 17:27:47;;;;;;;3.42;1.48;;;;;;;;;;5025700;28;20032;-79
2022/02/11 17:30:14;;;;;;;3.05;1.35;;;;;;;;;;5025691;28;20071;-81
2022/02/11 17:32:40;;;;;;;15.68;8.52;;;;;;;;;;5025210;28;20025;-81
2022/02/11 17:35:06;;;;;;;10.88;9.63;;;;;;;;;;5043368;28;20021;-80
2022/02/11 17:37:33;;;;;;;34.10;23.65;;;;;;;;;;5042556;28;20025;-80
2022/02/11 17:40:00;;;;;;;10.15;7.18;;;;;;;;;;5051562;28;20029;-79
2022/02/11 17:42:26;;;;;;;5.32;2.58;;;;;;;;;;5062697;28;20048;-83
2022/02/11 17:44:53;;;;;;;5.60;3.15;;;;;;;;;;5056172;28;20042;-80
2022/02/11 17:47:19;;;;;;;4.05;1.90;;;;;;;;;;5008020;28;20029;-83
2022/02/11 17:49:46;;;;;;;5.70;2.90;;;;;;;;;;5016545;28;20042;-82
2022/02/11 17:52:13;;;;;;;7.30;3.33;;;;;;;;;;5013831;28;20513;-81
2022/02/11 17:54:39;;;;;;;5.93;2.92;;;;;;;;;;5006680;28;20026;-80
2022/02/11 17:57:06;;;;;;;4.55;2.10;;;;;;;;;;5024548;28;20033;-82
2022/02/11 17:59:32;;;;;;;7.18;2.10;;;;;;;;;;5023019;28;20483;-80
2022/02/11 18:01:58;;;;;;;4.90;1.90;;;;;;;;;;5019449;28;20032;-79
2022/02/11 18:04:30;;;;;;;3.45;1.48;;;;;;;;;;5007236;28;20026;-82
2022/02/11 18:06:57;;;;;;;5.33;1.87;;;;;;;;;;5006160;28;20057;-78
2022/02/11 18:09:23;;;;;;;4.63;1.75;;;;;;;;;;5018709;28;20025;-80
2022/02/11 18:11:49;;;;;;;4.18;1.80;;;;;;;;;;5025955;28;20034;-80
2022/02/11 18:14:15;;;;;;;3.92;2.00;;;;;;;;;;5025571;28;20022;-80
2022/02/11 18:16:43;;;;;;;6.50;3.38;;;;;;;;;;5044218;28;20018;-81
2022/02/11 18:19:10;;;;;;;5.65;2.15;;;;;;;;;;5026683;28;20021;-82
2022/02/11 18:21:39;;;;;;;4.18;1.75;;;;;;;;;;5026293;28;20120;-82
2022/02/11 18:24:05;;;;;;;3.70;1.75;;;;;;;;;;5025899;28;20022;-80
2022/02/11 18:26:31;;;;;;;3.88;1.95;;;;;;;;;;5023354;28;20033;-79
2022/02/11 18:28:59;;;;;;;4.25;1.85;;;;;;;;;;5006466;28;20483;-80
2022/02/11 18:31:27;;;;;;;5.10;2.20;;;;;;;;;;5004644;28;20513;-79
2022/02/11 18:33:53;;;;;;;8.77;5.00;;;;;;;;;;5003396;28;20034;-79